sensor_id;sensor_type;location;lat;lon;timestamp;P1;durP1;ratioP1;P2;durP2;ratioP2
79088;SDS011;68489;50.286;9.452;2023-04-27T00:01:48;4.13;;;0.50;;
79088;SDS011;68489;50.286;9.452;2023-04-27T00:04:14;2.17;;;0.27;;
79088;SDS011;68489;50.286;9.452;2023-04-27T00:06:40;3.00;;;0.38;;
79088;SDS011;68489;50.286;9.452;2023-04-27T00:09:06;2.65;;;0.20;;
79088;SDS011;68489;50.286;9.452;2023-04-27T00:11:32;4.20;;;0.30;;
79088;SDS011;68489;50.286;9.452;2023-04-27T00:13:57;3.50;;;0.30;;
79088;SDS011;68489;50.286;9.452;2023-04-27T00:16:22;3.20;;;0.50;;
79088;SDS011;68489;50.286;9.452;2023-04-27T00:18:48;3.50;;;0.23;;
79088;SDS011;68489;50.286;9.452;2023-04-27T00:21:13;3.00;;;0.33;;
79088;SDS011;68489;50.286;9.452;2023-04-27T00:23:38;3.33;;;0.30;;
79088;SDS011;68489;50.286;9.452;2023-04-27T00:26:03;5.20;;;0.57;;
79088;SDS011;68489;50.286;9.452;2023-04-27T00:28:29;2.27;;;0.30;;
79088;SDS011;68489;50.286;9.452;2023-04-27T00:30:54;3.65;;;0.30;;
79088;SDS011;68489;50.286;9.452;2023-04-27T00:33:20;2.83;;;0.30;;
79088;SDS011;68489;50.286;9.452;2023-04-27T00:35:45;2.53;;;0.20;;
79088;SDS011;68489;50.286;9.452;2023-04-27T00:38:10;4.78;;;0.40;;
79088;SDS011;68489;50.286;9.452;2023-04-27T00:40:36;3.60;;;0.20;;
79088;SDS011;68489;50.286;9.452;2023-04-27T00:43:01;5.43;;;0.40;;
79088;SDS011;68489;50.286;9.452;2023-04-27T00:45:27;3.73;;;0.37;;
79088;SDS011;68489;50.286;9.452;2023-04-27T00:47:52;2.47;;;0.30;;
79088;SDS011;68489;50.286;9.452;2023-04-27T00:50:19;3.88;;;0.30;;
79088;SDS011;68489;50.286;9.452;2023-04-27T00:52:56;3.67;;;0.50;;
79088;SDS011;68489;50.286;9.452;2023-04-27T00:55:21;3.85;;;0.30;;
79088;SDS011;68489;50.286;9.452;2023-04-27T00:57:47;3.65;;;0.40;;
79088;SDS011;68489;50.286;9.452;2023-04-27T01:00:13;4.67;;;1.40;;
79088;SDS011;68489;50.286;9.452;2023-04-27T01:02:39;4.22;;;0.40;;
79088;SDS011;68489;50.286;9.452;2023-04-27T01:05:05;3.45;;;0.75;;
79088;SDS011;68489;50.286;9.452;2023-04-27T01:07:31;4.93;;;0.30;;
79088;SDS011;68489;50.286;9.452;2023-04-27T01:09:56;2.83;;;0.30;;
79088;SDS011;68489;50.286;9.452;2023-04-27T01:12:21;4.13;;;0.30;;
79088;SDS011;68489;50.286;9.452;2023-04-27T01:14:46;4.37;;;0.30;;
79088;SDS011;68489;50.286;9.452;2023-04-27T01:17:12;3.47;;;0.30;;
79088;SDS011;68489;50.286;9.452;2023-04-27T01:19:38;4.10;;;0.20;;
79088;SDS011;68489;50.286;9.452;2023-04-27T01:22:04;3.75;;;0.38;;
79088;SDS011;68489;50.286;9.452;2023-04-27T01:24:31;2.67;;;0.38;;
79088;SDS011;68489;50.286;9.452;2023-04-27T01:26:57;4.53;;;0.47;;
79088;SDS011;68489;50.286;9.452;2023-04-27T01:29:22;2.67;;;0.30;;
79088;SDS011;68489;50.286;9.452;2023-04-27T01:31:47;4.63;;;0.30;;
79088;SDS011;68489;50.286;9.452;2023-04-27T01:34:12;3.43;;;0.40;;
79088;SDS011;68489;50.286;9.452;2023-04-27T01:36:38;4.60;;;0.33;;
79088;SDS011;68489;50.286;9.452;2023-04-27T01:39:03;3.15;;;0.38;;
79088;SDS011;68489;50.286;9.452;2023-04-27T01:43:58;3.60;;;0.40;;
79088;SDS011;68489;50.286;9.452;2023-04-27T01:46:23;3.17;;;0.30;;
79088;SDS011;68489;50.286;9.452;2023-04-27T01:48:48;3.63;;;0.30;;
79088;SDS011;68489;50.286;9.452;2023-04-27T01:51:13;3.37;;;0.43;;
79088;SDS011;68489;50.286;9.452;2023-04-27T01:53:40;2.80;;;0.30;;
79088;SDS011;68489;50.286;9.452;2023-04-27T01:56:06;3.03;;;0.40;;
79088;SDS011;68489;50.286;9.452;2023-04-27T01:58:31;3.08;;;0.40;;
79088;SDS011;68489;50.286;9.452;2023-04-27T02:00:57;3.00;;;0.33;;
79088;SDS011;68489;50.286;9.452;2023-04-27T02:03:22;5.25;;;0.30;;
79088;SDS011;68489;50.286;9.452;2023-04-27T02:05:47;4.93;;;0.50;;
79088;SDS011;68489;50.286;9.452;2023-04-27T02:08:13;3.73;;;0.30;;
79088;SDS011;68489;50.286;9.452;2023-04-27T02:10:38;4.22;;;0.40;;
79088;SDS011;68489;50.286;9.452;2023-04-27T02:13:03;3.92;;;0.35;;
79088;SDS011;68489;50.286;9.452;2023-04-27T02:15:29;4.10;;;0.37;;
79088;SDS011;68489;50.286;9.452;2023-04-27T02:17:54;4.00;;;0.30;;
79088;SDS011;68489;50.286;9.452;2023-04-27T02:20:19;4.15;;;0.30;;
79088;SDS011;68489;50.286;9.452;2023-04-27T02:22:45;3.63;;;0.40;;
79088;SDS011;68489;50.286;9.452;2023-04-27T02:25:10;5.27;;;0.40;;
79088;SDS011;68489;50.286;9.452;2023-04-27T02:27:39;5.78;;;0.40;;
79088;SDS011;68489;50.286;9.452;2023-04-27T02:30:08;4.57;;;0.30;;
79088;SDS011;68489;50.286;9.452;2023-04-27T02:32:35;2.67;;;0.25;;
79088;SDS011;68489;50.286;9.452;2023-04-27T02:35:01;4.65;;;0.20;;
79088;SDS011;68489;50.286;9.452;2023-04-27T02:37:27;3.10;;;0.30;;
79088;SDS011;68489;50.286;9.452;2023-04-27T02:39:52;2.88;;;0.28;;
79088;SDS011;68489;50.286;9.452;2023-04-27T02:42:17;2.83;;;0.20;;
79088;SDS011;68489;50.286;9.452;2023-04-27T02:44:43;4.10;;;0.32;;
79088;SDS011;68489;50.286;9.452;2023-04-27T02:47:08;2.65;;;0.30;;
79088;SDS011;68489;50.286;9.452;2023-04-27T02:49:34;3.45;;;0.40;;
79088;SDS011;68489;50.286;9.452;2023-04-27T02:51:59;3.10;;;0.30;;
79088;SDS011;68489;50.286;9.452;2023-04-27T02:54:25;3.38;;;0.30;;
79088;SDS011;68489;50.286;9.452;2023-04-27T02:56:50;3.45;;;0.35;;
79088;SDS011;68489;50.286;9.452;2023-04-27T02:59:15;3.87;;;0.30;;
79088;SDS011;68489;50.286;9.452;2023-04-27T03:01:41;5.03;;;0.30;;
79088;SDS011;68489;50.286;9.452;2023-04-27T03:04:06;5.07;;;0.30;;
79088;SDS011;68489;50.286;9.452;2023-04-27T03:06:31;3.90;;;0.47;;
79088;SDS011;68489;50.286;9.452;2023-04-27T03:08:56;3.37;;;0.47;;
79088;SDS011;68489;50.286;9.452;2023-04-27T03:11:21;5.63;;;0.40;;
79088;SDS011;68489;50.286;9.452;2023-04-27T03:13:47;4.57;;;0.47;;
79088;SDS011;68489;50.286;9.452;2023-04-27T03:16:12;5.50;;;0.20;;
79088;SDS011;68489;50.286;9.452;2023-04-27T03:18:37;3.37;;;0.23;;
79088;SDS011;68489;50.286;9.452;2023-04-27T03:21:03;2.97;;;0.30;;
79088;SDS011;68489;50.286;9.452;2023-04-27T03:23:32;3.90;;;0.38;;
79088;SDS011;68489;50.286;9.452;2023-04-27T03:25:57;4.68;;;0.45;;
79088;SDS011;68489;50.286;9.452;2023-04-27T03:28:23;4.40;;;0.30;;
79088;SDS011;68489;50.286;9.452;2023-04-27T03:30:48;6.20;;;0.30;;
79088;SDS011;68489;50.286;9.452;2023-04-27T03:33:13;4.17;;;0.30;;
79088;SDS011;68489;50.286;9.452;2023-04-27T03:35:39;2.60;;;0.22;;
79088;SDS011;68489;50.286;9.452;2023-04-27T03:38:04;4.40;;;0.30;;
79088;SDS011;68489;50.286;9.452;2023-04-27T03:40:29;2.87;;;0.30;;
79088;SDS011;68489;50.286;9.452;2023-04-27T03:42:55;3.20;;;0.30;;
79088;SDS011;68489;50.286;9.452;2023-04-27T03:45:20;3.35;;;0.30;;
79088;SDS011;68489;50.286;9.452;2023-04-27T03:47:46;8.75;;;1.75;;
79088;SDS011;68489;50.286;9.452;2023-04-27T03:50:11;4.15;;;0.50;;
79088;SDS011;68489;50.286;9.452;2023-04-27T03:52:37;4.10;;;0.30;;
79088;SDS011;68489;50.286;9.452;2023-04-27T03:55:02;4.07;;;0.23;;
79088;SDS011;68489;50.286;9.452;2023-04-27T03:57:27;11.65;;;1.98;;
79088;SDS011;68489;50.286;9.452;2023-04-27T03:59:52;5.23;;;0.57;;
79088;SDS011;68489;50.286;9.452;2023-04-27T04:02:18;5.57;;;0.30;;
79088;SDS011;68489;50.286;9.452;2023-04-27T04:04:43;4.63;;;0.43;;
79088;SDS011;68489;50.286;9.452;2023-04-27T04:07:08;4.63;;;0.40;;
79088;SDS011;68489;50.286;9.452;2023-04-27T04:09:35;3.17;;;0.27;;
79088;SDS011;68489;50.286;9.452;2023-04-27T04:12:00;4.70;;;0.32;;
79088;SDS011;68489;50.286;9.452;2023-04-27T04:14:26;3.67;;;0.73;;
79088;SDS011;68489;50.286;9.452;2023-04-27T04:16:51;6.28;;;0.60;;
79088;SDS011;68489;50.286;9.452;2023-04-27T04:19:16;5.00;;;0.50;;
79088;SDS011;68489;50.286;9.452;2023-04-27T04:21:42;4.93;;;0.43;;
79088;SDS011;68489;50.286;9.452;2023-04-27T04:24:07;4.33;;;0.60;;
79088;SDS011;68489;50.286;9.452;2023-04-27T04:26:34;3.97;;;0.40;;
79088;SDS011;68489;50.286;9.452;2023-04-27T04:28:59;4.80;;;0.40;;
79088;SDS011;68489;50.286;9.452;2023-04-27T04:31:25;3.90;;;0.25;;
79088;SDS011;68489;50.286;9.452;2023-04-27T04:33:50;5.53;;;0.73;;
79088;SDS011;68489;50.286;9.452;2023-04-27T04:36:15;3.55;;;0.43;;
79088;SDS011;68489;50.286;9.452;2023-04-27T04:38:40;3.70;;;0.50;;
79088;SDS011;68489;50.286;9.452;2023-04-27T04:41:06;4.97;;;0.57;;
79088;SDS011;68489;50.286;9.452;2023-04-27T04:43:31;4.67;;;0.37;;
79088;SDS011;68489;50.286;9.452;2023-04-27T04:45:56;3.33;;;0.20;;
79088;SDS011;68489;50.286;9.452;2023-04-27T04:48:22;5.13;;;0.50;;
79088;SDS011;68489;50.286;9.452;2023-04-27T04:50:48;4.95;;;0.40;;
79088;SDS011;68489;50.286;9.452;2023-04-27T04:53:13;4.05;;;0.30;;
79088;SDS011;68489;50.286;9.452;2023-04-27T04:55:38;3.27;;;0.30;;
79088;SDS011;68489;50.286;9.452;2023-04-27T04:58:04;2.65;;;0.30;;
79088;SDS011;68489;50.286;9.452;2023-04-27T05:00:30;2.20;;;0.30;;
79088;SDS011;68489;50.286;9.452;2023-04-27T05:02:55;2.20;;;0.25;;
79088;SDS011;68489;50.286;9.452;2023-04-27T05:05:20;3.83;;;0.30;;
79088;SDS011;68489;50.286;9.452;2023-04-27T05:07:46;2.80;;;0.30;;
79088;SDS011;68489;50.286;9.452;2023-04-27T05:10:11;3.73;;;0.50;;
79088;SDS011;68489;50.286;9.452;2023-04-27T05:12:36;3.47;;;0.40;;
79088;SDS011;68489;50.286;9.452;2023-04-27T05:15:01;3.57;;;0.60;;
79088;SDS011;68489;50.286;9.452;2023-04-27T05:17:27;5.05;;;0.73;;
79088;SDS011;68489;50.286;9.452;2023-04-27T05:19:58;4.90;;;0.30;;
79088;SDS011;68489;50.286;9.452;2023-04-27T05:22:25;3.95;;;0.65;;
79088;SDS011;68489;50.286;9.452;2023-04-27T05:24:50;4.47;;;0.65;;
79088;SDS011;68489;50.286;9.452;2023-04-27T05:27:16;3.37;;;0.70;;
79088;SDS011;68489;50.286;9.452;2023-04-27T05:29:41;3.70;;;0.67;;
79088;SDS011;68489;50.286;9.452;2023-04-27T05:32:06;8.17;;;1.17;;
79088;SDS011;68489;50.286;9.452;2023-04-27T05:34:32;10.10;;;1.53;;
79088;SDS011;68489;50.286;9.452;2023-04-27T05:36:57;5.07;;;0.90;;
79088;SDS011;68489;50.286;9.452;2023-04-27T05:39:22;3.37;;;0.50;;
79088;SDS011;68489;50.286;9.452;2023-04-27T05:41:47;6.97;;;0.90;;
79088;SDS011;68489;50.286;9.452;2023-04-27T05:44:13;4.53;;;0.80;;
79088;SDS011;68489;50.286;9.452;2023-04-27T05:46:38;5.82;;;0.77;;
79088;SDS011;68489;50.286;9.452;2023-04-27T05:49:03;4.10;;;0.73;;
79088;SDS011;68489;50.286;9.452;2023-04-27T05:51:28;4.40;;;1.10;;
79088;SDS011;68489;50.286;9.452;2023-04-27T05:53:54;7.17;;;0.80;;
79088;SDS011;68489;50.286;9.452;2023-04-27T05:56:19;3.97;;;0.55;;
79088;SDS011;68489;50.286;9.452;2023-04-27T05:58:45;4.55;;;0.50;;
79088;SDS011;68489;50.286;9.452;2023-04-27T06:01:11;4.55;;;0.50;;
79088;SDS011;68489;50.286;9.452;2023-04-27T06:03:36;4.53;;;0.60;;
79088;SDS011;68489;50.286;9.452;2023-04-27T06:06:02;4.43;;;0.53;;
79088;SDS011;68489;50.286;9.452;2023-04-27T06:08:27;3.22;;;0.47;;
79088;SDS011;68489;50.286;9.452;2023-04-27T06:10:53;4.78;;;0.65;;
79088;SDS011;68489;50.286;9.452;2023-04-27T06:13:19;5.23;;;0.67;;
79088;SDS011;68489;50.286;9.452;2023-04-27T06:15:44;4.13;;;0.77;;
79088;SDS011;68489;50.286;9.452;2023-04-27T06:18:10;5.20;;;0.75;;
79088;SDS011;68489;50.286;9.452;2023-04-27T06:20:35;4.75;;;0.45;;
79088;SDS011;68489;50.286;9.452;2023-04-27T06:23:01;7.77;;;0.80;;
79088;SDS011;68489;50.286;9.452;2023-04-27T06:25:26;4.63;;;0.50;;
79088;SDS011;68489;50.286;9.452;2023-04-27T06:27:53;4.20;;;0.75;;
79088;SDS011;68489;50.286;9.452;2023-04-27T06:30:19;5.00;;;0.77;;
79088;SDS011;68489;50.286;9.452;2023-04-27T06:32:44;4.60;;;0.97;;
79088;SDS011;68489;50.286;9.452;2023-04-27T06:35:09;4.15;;;0.90;;
79088;SDS011;68489;50.286;9.452;2023-04-27T06:37:35;7.03;;;1.20;;
79088;SDS011;68489;50.286;9.452;2023-04-27T06:40:00;6.73;;;0.93;;
79088;SDS011;68489;50.286;9.452;2023-04-27T06:42:25;5.03;;;0.70;;
79088;SDS011;68489;50.286;9.452;2023-04-27T06:44:54;7.18;;;0.80;;
79088;SDS011;68489;50.286;9.452;2023-04-27T06:47:20;6.45;;;0.88;;
79088;SDS011;68489;50.286;9.452;2023-04-27T06:49:46;8.45;;;0.95;;
79088;SDS011;68489;50.286;9.452;2023-04-27T06:52:11;6.70;;;1.33;;
79088;SDS011;68489;50.286;9.452;2023-04-27T06:54:37;4.80;;;0.80;;
79088;SDS011;68489;50.286;9.452;2023-04-27T06:57:02;4.73;;;0.90;;
79088;SDS011;68489;50.286;9.452;2023-04-27T06:59:27;6.03;;;0.93;;
79088;SDS011;68489;50.286;9.452;2023-04-27T07:01:53;7.77;;;1.43;;
79088;SDS011;68489;50.286;9.452;2023-04-27T07:04:18;6.40;;;1.13;;
79088;SDS011;68489;50.286;9.452;2023-04-27T07:06:43;6.20;;;0.93;;
79088;SDS011;68489;50.286;9.452;2023-04-27T07:09:08;4.90;;;1.00;;
79088;SDS011;68489;50.286;9.452;2023-04-27T07:11:34;5.47;;;1.07;;
79088;SDS011;68489;50.286;9.452;2023-04-27T07:13:59;6.57;;;1.00;;
79088;SDS011;68489;50.286;9.452;2023-04-27T07:16:24;5.13;;;1.20;;
79088;SDS011;68489;50.286;9.452;2023-04-27T07:18:49;5.35;;;0.90;;
79088;SDS011;68489;50.286;9.452;2023-04-27T07:21:15;5.17;;;0.63;;
79088;SDS011;68489;50.286;9.452;2023-04-27T07:23:40;5.70;;;1.02;;
79088;SDS011;68489;50.286;9.452;2023-04-27T07:26:06;4.28;;;0.80;;
79088;SDS011;68489;50.286;9.452;2023-04-27T07:28:32;6.78;;;1.08;;
79088;SDS011;68489;50.286;9.452;2023-04-27T07:30:59;5.20;;;0.68;;
79088;SDS011;68489;50.286;9.452;2023-04-27T07:33:24;5.07;;;0.50;;
79088;SDS011;68489;50.286;9.452;2023-04-27T07:35:51;4.97;;;0.90;;
79088;SDS011;68489;50.286;9.452;2023-04-27T07:38:17;7.95;;;0.90;;
79088;SDS011;68489;50.286;9.452;2023-04-27T07:40:43;5.70;;;0.80;;
79088;SDS011;68489;50.286;9.452;2023-04-27T07:43:09;6.60;;;0.70;;
79088;SDS011;68489;50.286;9.452;2023-04-27T07:45:34;5.03;;;0.85;;
79088;SDS011;68489;50.286;9.452;2023-04-27T07:48:03;4.82;;;1.00;;
79088;SDS011;68489;50.286;9.452;2023-04-27T07:50:29;6.25;;;1.15;;
79088;SDS011;68489;50.286;9.452;2023-04-27T07:52:54;5.25;;;0.73;;
79088;SDS011;68489;50.286;9.452;2023-04-27T07:55:20;5.75;;;0.85;;
79088;SDS011;68489;50.286;9.452;2023-04-27T07:57:47;3.58;;;0.60;;
79088;SDS011;68489;50.286;9.452;2023-04-27T08:00:13;4.93;;;0.80;;
79088;SDS011;68489;50.286;9.452;2023-04-27T08:02:38;6.68;;;0.98;;
79088;SDS011;68489;50.286;9.452;2023-04-27T08:05:03;5.27;;;0.70;;
79088;SDS011;68489;50.286;9.452;2023-04-27T08:07:29;3.97;;;0.60;;
79088;SDS011;68489;50.286;9.452;2023-04-27T08:09:55;4.38;;;0.90;;
79088;SDS011;68489;50.286;9.452;2023-04-27T08:12:21;6.90;;;0.77;;
79088;SDS011;68489;50.286;9.452;2023-04-27T08:14:46;5.10;;;0.67;;
79088;SDS011;68489;50.286;9.452;2023-04-27T08:17:11;4.00;;;0.70;;
79088;SDS011;68489;50.286;9.452;2023-04-27T08:19:37;6.37;;;1.27;;
79088;SDS011;68489;50.286;9.452;2023-04-27T08:22:02;7.07;;;0.75;;
79088;SDS011;68489;50.286;9.452;2023-04-27T08:24:27;4.40;;;0.93;;
79088;SDS011;68489;50.286;9.452;2023-04-27T08:26:53;4.15;;;0.68;;
79088;SDS011;68489;50.286;9.452;2023-04-27T08:29:18;4.63;;;0.90;;
79088;SDS011;68489;50.286;9.452;2023-04-27T08:31:43;5.00;;;0.70;;
79088;SDS011;68489;50.286;9.452;2023-04-27T08:34:09;6.18;;;0.95;;
79088;SDS011;68489;50.286;9.452;2023-04-27T08:36:34;4.83;;;0.70;;
79088;SDS011;68489;50.286;9.452;2023-04-27T08:38:59;7.70;;;0.87;;
79088;SDS011;68489;50.286;9.452;2023-04-27T08:41:25;6.75;;;0.73;;
79088;SDS011;68489;50.286;9.452;2023-04-27T08:43:50;6.23;;;1.60;;
79088;SDS011;68489;50.286;9.452;2023-04-27T08:46:20;4.95;;;1.13;;
79088;SDS011;68489;50.286;9.452;2023-04-27T08:48:50;12.43;;;3.08;;
79088;SDS011;68489;50.286;9.452;2023-04-27T08:51:16;12.10;;;3.42;;
79088;SDS011;68489;50.286;9.452;2023-04-27T08:53:44;13.77;;;5.43;;
79088;SDS011;68489;50.286;9.452;2023-04-27T08:56:14;11.68;;;3.47;;
79088;SDS011;68489;50.286;9.452;2023-04-27T08:58:39;5.80;;;1.10;;
79088;SDS011;68489;50.286;9.452;2023-04-27T09:01:05;4.85;;;0.88;;
79088;SDS011;68489;50.286;9.452;2023-04-27T09:03:31;6.88;;;0.95;;
79088;SDS011;68489;50.286;9.452;2023-04-27T09:05:56;5.70;;;0.70;;
79088;SDS011;68489;50.286;9.452;2023-04-27T09:08:22;7.10;;;1.53;;
79088;SDS011;68489;50.286;9.452;2023-04-27T09:10:50;6.70;;;1.40;;
79088;SDS011;68489;50.286;9.452;2023-04-27T09:13:16;6.05;;;0.98;;
79088;SDS011;68489;50.286;9.452;2023-04-27T09:18:13;5.82;;;1.00;;
79088;SDS011;68489;50.286;9.452;2023-04-27T09:20:42;5.25;;;1.20;;
79088;SDS011;68489;50.286;9.452;2023-04-27T09:23:23;5.22;;;0.98;;
79088;SDS011;68489;50.286;9.452;2023-04-27T09:25:56;5.82;;;1.08;;
79088;SDS011;68489;50.286;9.452;2023-04-27T09:28:26;4.93;;;0.85;;
79088;SDS011;68489;50.286;9.452;2023-04-27T09:30:56;7.90;;;1.05;;
79088;SDS011;68489;50.286;9.452;2023-04-27T09:33:23;5.47;;;0.80;;
79088;SDS011;68489;50.286;9.452;2023-04-27T09:35:49;6.80;;;0.88;;
79088;SDS011;68489;50.286;9.452;2023-04-27T09:38:15;6.57;;;0.73;;
79088;SDS011;68489;50.286;9.452;2023-04-27T09:40:42;3.88;;;0.88;;
79088;SDS011;68489;50.286;9.452;2023-04-27T09:43:07;4.77;;;0.80;;
79088;SDS011;68489;50.286;9.452;2023-04-27T09:45:33;5.88;;;0.75;;
79088;SDS011;68489;50.286;9.452;2023-04-27T09:47:59;5.43;;;1.50;;
79088;SDS011;68489;50.286;9.452;2023-04-27T09:50:25;5.63;;;1.30;;
79088;SDS011;68489;50.286;9.452;2023-04-27T09:52:50;6.18;;;0.95;;
79088;SDS011;68489;50.286;9.452;2023-04-27T09:55:17;4.10;;;0.70;;
79088;SDS011;68489;50.286;9.452;2023-04-27T09:57:54;6.90;;;0.75;;
79088;SDS011;68489;50.286;9.452;2023-04-27T10:01:15;5.68;;;1.17;;
79088;SDS011;68489;50.286;9.452;2023-04-27T10:08:52;4.00;;;0.82;;
79088;SDS011;68489;50.286;9.452;2023-04-27T10:11:19;5.35;;;0.77;;
79088;SDS011;68489;50.286;9.452;2023-04-27T10:13:51;5.80;;;1.20;;
79088;SDS011;68489;50.286;9.452;2023-04-27T10:16:18;6.28;;;1.13;;
79088;SDS011;68489;50.286;9.452;2023-04-27T10:18:50;3.58;;;0.75;;
79088;SDS011;68489;50.286;9.452;2023-04-27T10:21:19;5.95;;;1.00;;
79088;SDS011;68489;50.286;9.452;2023-04-27T10:23:46;4.70;;;1.20;;
79088;SDS011;68489;50.286;9.452;2023-04-27T10:26:12;6.53;;;1.48;;
79088;SDS011;68489;50.286;9.452;2023-04-27T10:28:54;4.00;;;0.93;;
79088;SDS011;68489;50.286;9.452;2023-04-27T10:31:31;6.70;;;1.00;;
79088;SDS011;68489;50.286;9.452;2023-04-27T10:34:06;6.38;;;1.10;;
79088;SDS011;68489;50.286;9.452;2023-04-27T10:36:39;7.85;;;2.15;;
79088;SDS011;68489;50.286;9.452;2023-04-27T10:39:15;6.95;;;1.67;;
79088;SDS011;68489;50.286;9.452;2023-04-27T10:41:51;5.43;;;1.45;;
79088;SDS011;68489;50.286;9.452;2023-04-27T10:44:25;6.53;;;2.25;;
79088;SDS011;68489;50.286;9.452;2023-04-27T10:46:52;5.55;;;1.58;;
79088;SDS011;68489;50.286;9.452;2023-04-27T10:49:18;6.32;;;1.95;;
79088;SDS011;68489;50.286;9.452;2023-04-27T10:51:44;7.40;;;2.28;;
79088;SDS011;68489;50.286;9.452;2023-04-27T10:54:10;6.40;;;2.70;;
79088;SDS011;68489;50.286;9.452;2023-04-27T10:56:36;5.60;;;1.38;;
79088;SDS011;68489;50.286;9.452;2023-04-27T10:59:02;6.80;;;1.53;;
79088;SDS011;68489;50.286;9.452;2023-04-27T11:01:30;4.43;;;1.70;;
79088;SDS011;68489;50.286;9.452;2023-04-27T11:03:59;5.85;;;1.38;;
79088;SDS011;68489;50.286;9.452;2023-04-27T11:06:25;5.63;;;1.75;;
79088;SDS011;68489;50.286;9.452;2023-04-27T11:08:54;6.82;;;1.42;;
79088;SDS011;68489;50.286;9.452;2023-04-27T11:11:21;5.43;;;1.25;;
79088;SDS011;68489;50.286;9.452;2023-04-27T11:13:47;6.10;;;1.05;;
79088;SDS011;68489;50.286;9.452;2023-04-27T11:16:13;6.25;;;1.75;;
79088;SDS011;68489;50.286;9.452;2023-04-27T11:18:39;5.03;;;1.48;;
79088;SDS011;68489;50.286;9.452;2023-04-27T11:21:05;9.95;;;1.38;;
79088;SDS011;68489;50.286;9.452;2023-04-27T11:23:32;5.88;;;1.58;;
79088;SDS011;68489;50.286;9.452;2023-04-27T11:26:08;5.03;;;0.80;;
79088;SDS011;68489;50.286;9.452;2023-04-27T11:28:35;4.82;;;1.95;;
79088;SDS011;68489;50.286;9.452;2023-04-27T11:31:00;6.05;;;1.50;;
79088;SDS011;68489;50.286;9.452;2023-04-27T11:33:26;5.47;;;1.40;;
79088;SDS011;68489;50.286;9.452;2023-04-27T11:35:52;4.80;;;1.25;;
79088;SDS011;68489;50.286;9.452;2023-04-27T11:38:18;4.28;;;1.08;;
79088;SDS011;68489;50.286;9.452;2023-04-27T11:40:57;6.38;;;1.08;;
79088;SDS011;68489;50.286;9.452;2023-04-27T11:43:27;5.30;;;1.30;;
79088;SDS011;68489;50.286;9.452;2023-04-27T11:45:53;4.23;;;1.13;;
79088;SDS011;68489;50.286;9.452;2023-04-27T11:48:21;5.80;;;1.33;;
79088;SDS011;68489;50.286;9.452;2023-04-27T11:50:47;4.43;;;1.27;;
79088;SDS011;68489;50.286;9.452;2023-04-27T11:53:13;4.45;;;0.80;;
79088;SDS011;68489;50.286;9.452;2023-04-27T11:55:38;6.93;;;1.10;;
79088;SDS011;68489;50.286;9.452;2023-04-27T11:58:05;5.60;;;1.58;;
79088;SDS011;68489;50.286;9.452;2023-04-27T12:00:31;5.40;;;1.25;;
79088;SDS011;68489;50.286;9.452;2023-04-27T12:02:57;5.65;;;1.17;;
79088;SDS011;68489;50.286;9.452;2023-04-27T12:05:22;4.03;;;0.67;;
79088;SDS011;68489;50.286;9.452;2023-04-27T12:07:47;6.47;;;0.83;;
79088;SDS011;68489;50.286;9.452;2023-04-27T12:10:13;5.37;;;0.80;;
79088;SDS011;68489;50.286;9.452;2023-04-27T12:12:38;5.83;;;0.87;;
79088;SDS011;68489;50.286;9.452;2023-04-27T12:15:04;5.60;;;1.20;;
79088;SDS011;68489;50.286;9.452;2023-04-27T12:17:30;7.32;;;1.25;;
79088;SDS011;68489;50.286;9.452;2023-04-27T12:19:55;6.20;;;3.58;;
79088;SDS011;68489;50.286;9.452;2023-04-27T12:22:21;6.03;;;0.80;;
79088;SDS011;68489;50.286;9.452;2023-04-27T12:24:46;3.88;;;0.82;;
79088;SDS011;68489;50.286;9.452;2023-04-27T12:27:11;4.80;;;2.67;;
79088;SDS011;68489;50.286;9.452;2023-04-27T12:29:37;4.70;;;1.07;;
79088;SDS011;68489;50.286;9.452;2023-04-27T12:32:03;4.28;;;1.00;;
79088;SDS011;68489;50.286;9.452;2023-04-27T12:34:28;6.45;;;1.70;;
79088;SDS011;68489;50.286;9.452;2023-04-27T12:36:53;6.07;;;0.70;;
79088;SDS011;68489;50.286;9.452;2023-04-27T12:39:20;5.20;;;1.17;;
79088;SDS011;68489;50.286;9.452;2023-04-27T12:41:49;5.05;;;1.63;;
79088;SDS011;68489;50.286;9.452;2023-04-27T12:44:14;6.50;;;1.25;;
79088;SDS011;68489;50.286;9.452;2023-04-27T12:46:41;5.07;;;1.65;;
79088;SDS011;68489;50.286;9.452;2023-04-27T12:49:08;5.13;;;1.35;;
79088;SDS011;68489;50.286;9.452;2023-04-27T12:51:34;5.95;;;1.65;;
79088;SDS011;68489;50.286;9.452;2023-04-27T12:54:04;6.25;;;1.30;;
79088;SDS011;68489;50.286;9.452;2023-04-27T12:56:31;5.95;;;1.77;;
79088;SDS011;68489;50.286;9.452;2023-04-27T12:58:57;5.85;;;1.52;;
79088;SDS011;68489;50.286;9.452;2023-04-27T13:01:22;6.53;;;4.40;;
79088;SDS011;68489;50.286;9.452;2023-04-27T13:03:52;5.70;;;1.80;;
79088;SDS011;68489;50.286;9.452;2023-04-27T13:06:18;6.72;;;1.45;;
79088;SDS011;68489;50.286;9.452;2023-04-27T13:08:44;5.15;;;1.85;;
79088;SDS011;68489;50.286;9.452;2023-04-27T13:11:10;6.28;;;3.13;;
79088;SDS011;68489;50.286;9.452;2023-04-27T13:13:35;6.47;;;3.03;;
79088;SDS011;68489;50.286;9.452;2023-04-27T13:16:01;3.83;;;1.60;;
79088;SDS011;68489;50.286;9.452;2023-04-27T13:18:26;7.43;;;3.53;;
79088;SDS011;68489;50.286;9.452;2023-04-27T13:20:51;5.90;;;3.13;;
79088;SDS011;68489;50.286;9.452;2023-04-27T13:23:17;6.13;;;1.95;;
79088;SDS011;68489;50.286;9.452;2023-04-27T13:25:42;4.60;;;2.47;;
79088;SDS011;68489;50.286;9.452;2023-04-27T13:28:07;7.30;;;1.93;;
79088;SDS011;68489;50.286;9.452;2023-04-27T13:30:32;6.57;;;5.03;;
79088;SDS011;68489;50.286;9.452;2023-04-27T13:32:58;6.25;;;2.38;;
79088;SDS011;68489;50.286;9.452;2023-04-27T13:35:25;4.18;;;2.13;;
79088;SDS011;68489;50.286;9.452;2023-04-27T13:37:50;6.32;;;2.03;;
79088;SDS011;68489;50.286;9.452;2023-04-27T13:40:17;4.93;;;1.40;;
79088;SDS011;68489;50.286;9.452;2023-04-27T13:42:43;4.68;;;1.77;;
79088;SDS011;68489;50.286;9.452;2023-04-27T13:45:09;4.23;;;1.13;;
79088;SDS011;68489;50.286;9.452;2023-04-27T13:47:34;4.80;;;1.58;;
79088;SDS011;68489;50.286;9.452;2023-04-27T13:52:32;6.25;;;2.08;;
79088;SDS011;68489;50.286;9.452;2023-04-27T13:54:58;6.50;;;1.55;;
79088;SDS011;68489;50.286;9.452;2023-04-27T13:57:24;6.40;;;2.23;;
79088;SDS011;68489;50.286;9.452;2023-04-27T13:59:49;5.03;;;1.90;;
79088;SDS011;68489;50.286;9.452;2023-04-27T14:02:15;5.43;;;2.63;;
79088;SDS011;68489;50.286;9.452;2023-04-27T14:04:40;4.20;;;1.00;;
79088;SDS011;68489;50.286;9.452;2023-04-27T14:07:05;6.00;;;2.17;;
79088;SDS011;68489;50.286;9.452;2023-04-27T14:09:31;5.43;;;2.13;;
79088;SDS011;68489;50.286;9.452;2023-04-27T14:11:56;6.30;;;1.43;;
79088;SDS011;68489;50.286;9.452;2023-04-27T14:14:21;7.32;;;2.28;;
79088;SDS011;68489;50.286;9.452;2023-04-27T14:16:47;6.78;;;2.78;;
79088;SDS011;68489;50.286;9.452;2023-04-27T14:19:14;5.75;;;1.58;;
79088;SDS011;68489;50.286;9.452;2023-04-27T14:21:40;8.70;;;3.23;;
79088;SDS011;68489;50.286;9.452;2023-04-27T14:24:05;6.88;;;2.15;;
79088;SDS011;68489;50.286;9.452;2023-04-27T14:26:32;5.53;;;1.58;;
79088;SDS011;68489;50.286;9.452;2023-04-27T14:28:57;4.87;;;1.40;;
79088;SDS011;68489;50.286;9.452;2023-04-27T14:31:22;4.95;;;1.42;;
79088;SDS011;68489;50.286;9.452;2023-04-27T14:33:48;6.25;;;1.42;;
79088;SDS011;68489;50.286;9.452;2023-04-27T14:36:14;6.65;;;1.88;;
79088;SDS011;68489;50.286;9.452;2023-04-27T14:38:41;6.25;;;1.10;;
79088;SDS011;68489;50.286;9.452;2023-04-27T14:41:07;7.50;;;1.53;;
79088;SDS011;68489;50.286;9.452;2023-04-27T14:43:32;5.45;;;1.00;;
79088;SDS011;68489;50.286;9.452;2023-04-27T14:45:58;5.73;;;1.00;;
79088;SDS011;68489;50.286;9.452;2023-04-27T14:48:23;4.47;;;1.83;;
79088;SDS011;68489;50.286;9.452;2023-04-27T14:50:48;7.03;;;1.53;;
79088;SDS011;68489;50.286;9.452;2023-04-27T14:53:13;6.60;;;1.20;;
79088;SDS011;68489;50.286;9.452;2023-04-27T14:55:39;4.70;;;1.13;;